Yang Mei Hu — BQCG — position and weather

sailwx.info

Track history (hours):
 
Tides and Currents Weather Stations Pressure Air Temp Water Temp Dewpoint Dewpoint Depression Visibility Wind Speed Wind Dir Waves Ship Positions

Yang Mei Hu

Last reported at 2014-Jul-22 22:33 UTC. Time now 2014-Jul-22 23:34 UTC.
Position N 52°10' E 003°33'.

Length 245 m; draft 9 m.

Type: Tanker. MMSI: 413858000.

Date/timePositionNaut miles runAvg speedWind from/ knotsBaromVisibWave heightAir tempDewpointWater temp
2014-Jul-22 22:33N 52°10' E 003°33'0 0.1
2014-Jul-22 21:21N 52°10' E 003°32'0 0.0
2014-Jul-22 20:25N 52°10' E 003°32'0 0.0
2014-Jul-22 19:18N 52°10' E 003°32'0 0.0
2014-Jul-22 18:33N 52°10' E 003°32'0 0.0
2014-Jul-22 17:33N 52°10' E 003°32'0 0.0
2014-Jul-22 16:30N 52°10' E 003°32'0 0.0
2014-Jul-22 15:09N 52°10' E 003°33'0 0.0
2014-Jul-22 14:30N 52°10' E 003°32'0 0.1
2014-Jul-22 13:33N 52°10' E 003°33'0 0.1
2014-Jul-22 12:16N 52°10' E 003°33'0 0.0
2014-Jul-22 11:31N 52°10' E 003°33'0 0.0
2014-Jul-22 10:34N 52°10' E 003°33'1 1.5
2014-Jul-22 09:33N 52°09' E 003°31'8 8.0
2014-Jul-22 08:33N 52°12' E 003°19'1211.6
2014-Jul-22 07:34N 52°23' E 003°14'1514.0
2014-Jul-22 06:30N 52°38' E 003°10'94 8.8
2014-Jul-21 19:48N 54°03' E 004°17'5 8.8
2014-Jul-21 19:18N 54°07' E 004°21'17 8.5
2014-Jul-21 17:15N 54°23' E 004°34'274 8.4
2014-Jul-20 08:33N 57°47' E 010°00'9 8.9
2014-Jul-20 07:34N 57°47' E 010°17'9 9.3
2014-Jul-20 06:33N 57°48' E 010°34'8 8.4
2014-Jul-20 05:33N 57°46' E 010°49'9 9.4
2014-Jul-20 04:34N 57°40' E 011°02'9 9.1
2014-Jul-20 03:33N 57°34' E 011°14'8 8.2
2014-Jul-20 02:34N 57°28' E 011°26'8 8.3
2014-Jul-20 01:34N 57°20' E 011°31'8 7.9
2014-Jul-20 00:33N 57°13' E 011°36'8 7.6
2014-Jul-19 23:33N 57°06' E 011°41'8 7.7
2014-Jul-19 22:33N 56°58' E 011°46'8 8.3
2014-Jul-19 21:32N 56°51' E 011°51'8 8.5
2014-Jul-19 20:32N 56°42' E 011°55'9 8.8
2014-Jul-19 19:33N 56°34' E 011°59'9 8.8
2014-Jul-19 18:34N 56°25' E 012°02'8 8.1
2014-Jul-19 17:33N 56°18' E 012°06'8 8.5
2014-Jul-19 16:33N 56°12' E 012°18'9 9.1
2014-Jul-19 15:33N 56°07' E 012°32'1111.5
2014-Jul-19 14:33N 55°57' E 012°40'1313.4
2014-Jul-19 13:33N 55°43' E 012°41'1111.0
2014-Jul-19 12:33N 55°32' E 012°43'8 8.4
2014-Jul-19 11:33N 55°24' E 012°41'7 6.7
2014-Jul-19 10:33N 55°18' E 012°45'9 9.2
2014-Jul-19 09:33N 55°15' E 012°60'9 9.2
2014-Jul-19 08:33N 55°13' E 013°16'9 9.2
2014-Jul-19 07:33N 55°13' E 013°32'9 9.2
2014-Jul-19 06:33N 55°13' E 013°48'9 9.2
2014-Jul-19 05:33N 55°13' E 014°04'9 8.7
2014-Jul-19 04:33N 55°15' E 014°19'9 9.2
2014-Jul-19 03:33N 55°22' E 014°29'9 8.8
2014-Jul-19 02:33N 55°28' E 014°41'9 8.6
2014-Jul-19 01:33N 55°32' E 014°54'9 8.8
2014-Jul-19 00:33N 55°37' E 015°07'9 8.9
2014-Jul-18 23:33N 55°41' E 015°21'9 9.0
2014-Jul-18 22:33N 55°46' E 015°35'9 9.0
2014-Jul-18 21:33N 55°50' E 015°49'9 9.1
2014-Jul-18 20:33N 55°55' E 016°03'9 9.2
2014-Jul-18 19:33N 55°59' E 016°17'9 9.0
2014-Jul-18 18:33N 56°04' E 016°31'9 8.8
2014-Jul-18 17:33N 56°09' E 016°44'37 8.9
2014-Jul-18 13:20N 56°31' E 017°38'7 9.0
2014-Jul-18 12:33N 56°35' E 017°49'9 8.8
2014-Jul-18 11:29N 56°41' E 018°02'8 8.7
2014-Jul-18 10:33N 56°46' E 018°14'9 8.4
2014-Jul-18 09:31N 56°51' E 018°27'9 8.7
2014-Jul-18 08:32N 56°57' E 018°38'9 8.8
2014-Jul-18 07:33N 57°03' E 018°49'9 8.7
2014-Jul-18 06:31N 57°09' E 019°01'  
Track history (hours):
 
Tides and Currents Weather Stations Pressure Air Temp Water Temp Dewpoint Dewpoint Depression Visibility Wind Speed Wind Dir Waves Ship Positions

Yang Mei Hu

Last reported at 2014-Jul-22 22:33 UTC. Time now 2014-Jul-22 23:34 UTC.
Position N 52°10' E 003°33'.

Length 245 m; draft 9 m.

Type: Tanker. MMSI: 413858000.

Date/timePositionNaut miles runAvg speedWind from/ knotsBaromVisibWave heightAir tempDewpointWater temp
2014-Jul-22 22:33N 52°10' E 003°33'0 0.1
2014-Jul-22 21:21N 52°10' E 003°32'0 0.0
2014-Jul-22 20:25N 52°10' E 003°32'0 0.0
2014-Jul-22 19:18N 52°10' E 003°32'0 0.0
2014-Jul-22 18:33N 52°10' E 003°32'0 0.0
2014-Jul-22 17:33N 52°10' E 003°32'0 0.0
2014-Jul-22 16:30N 52°10' E 003°32'0 0.0
2014-Jul-22 15:09N 52°10' E 003°33'0 0.0
2014-Jul-22 14:30N 52°10' E 003°32'0 0.1
2014-Jul-22 13:33N 52°10' E 003°33'0 0.1
2014-Jul-22 12:16N 52°10' E 003°33'0 0.0
2014-Jul-22 11:31N 52°10' E 003°33'0 0.0
2014-Jul-22 10:34N 52°10' E 003°33'1 1.5
2014-Jul-22 09:33N 52°09' E 003°31'8 8.0
2014-Jul-22 08:33N 52°12' E 003°19'1211.6
2014-Jul-22 07:34N 52°23' E 003°14'1514.0
2014-Jul-22 06:30N 52°38' E 003°10'94 8.8
2014-Jul-21 19:48N 54°03' E 004°17'5 8.8
2014-Jul-21 19:18N 54°07' E 004°21'17 8.5
2014-Jul-21 17:15N 54°23' E 004°34'274 8.4
2014-Jul-20 08:33N 57°47' E 010°00'9 8.9
2014-Jul-20 07:34N 57°47' E 010°17'9 9.3
2014-Jul-20 06:33N 57°48' E 010°34'8 8.4
2014-Jul-20 05:33N 57°46' E 010°49'9 9.4
2014-Jul-20 04:34N 57°40' E 011°02'9 9.1
2014-Jul-20 03:33N 57°34' E 011°14'8 8.2
2014-Jul-20 02:34N 57°28' E 011°26'8 8.3
2014-Jul-20 01:34N 57°20' E 011°31'8 7.9
2014-Jul-20 00:33N 57°13' E 011°36'8 7.6
2014-Jul-19 23:33N 57°06' E 011°41'8 7.7
2014-Jul-19 22:33N 56°58' E 011°46'8 8.3
2014-Jul-19 21:32N 56°51' E 011°51'8 8.5
2014-Jul-19 20:32N 56°42' E 011°55'9 8.8
2014-Jul-19 19:33N 56°34' E 011°59'9 8.8
2014-Jul-19 18:34N 56°25' E 012°02'8 8.1
2014-Jul-19 17:33N 56°18' E 012°06'8 8.5
2014-Jul-19 16:33N 56°12' E 012°18'9 9.1
2014-Jul-19 15:33N 56°07' E 012°32'1111.5
2014-Jul-19 14:33N 55°57' E 012°40'1313.4
2014-Jul-19 13:33N 55°43' E 012°41'1111.0
2014-Jul-19 12:33N 55°32' E 012°43'8 8.4
2014-Jul-19 11:33N 55°24' E 012°41'7 6.7
2014-Jul-19 10:33N 55°18' E 012°45'9 9.2
2014-Jul-19 09:33N 55°15' E 012°60'9 9.2
2014-Jul-19 08:33N 55°13' E 013°16'9 9.2
2014-Jul-19 07:33N 55°13' E 013°32'9 9.2
2014-Jul-19 06:33N 55°13' E 013°48'9 9.2
2014-Jul-19 05:33N 55°13' E 014°04'9 8.7
2014-Jul-19 04:33N 55°15' E 014°19'9 9.2
2014-Jul-19 03:33N 55°22' E 014°29'9 8.8
2014-Jul-19 02:33N 55°28' E 014°41'9 8.6
2014-Jul-19 01:33N 55°32' E 014°54'9 8.8
2014-Jul-19 00:33N 55°37' E 015°07'9 8.9
2014-Jul-18 23:33N 55°41' E 015°21'9 9.0
2014-Jul-18 22:33N 55°46' E 015°35'9 9.0
2014-Jul-18 21:33N 55°50' E 015°49'9 9.1
2014-Jul-18 20:33N 55°55' E 016°03'9 9.2
2014-Jul-18 19:33N 55°59' E 016°17'9 9.0
2014-Jul-18 18:33N 56°04' E 016°31'9 8.8
2014-Jul-18 17:33N 56°09' E 016°44'37 8.9
2014-Jul-18 13:20N 56°31' E 017°38'7 9.0
2014-Jul-18 12:33N 56°35' E 017°49'9 8.8
2014-Jul-18 11:29N 56°41' E 018°02'8 8.7
2014-Jul-18 10:33N 56°46' E 018°14'9 8.4
2014-Jul-18 09:31N 56°51' E 018°27'9 8.7
2014-Jul-18 08:32N 56°57' E 018°38'9 8.8
2014-Jul-18 07:33N 57°03' E 018°49'9 8.7
2014-Jul-18 06:31N 57°09' E 019°01'  

Dump ship's entire track history